Time;durP1;ratioP1;P1;durP2;ratioP2;P2;SDS_P1;SDS_P2;PMS_P1;PMS_P2;Temp;Humidity;BMP_temperature;BMP_pressure;BME280_temperature;BME280_humidity;BME280_pressure;Samples;Min_cycle;Max_cycle;Signal;HPM_P1;HPM_P2
2022/07/29 08:38:05;;;;;;;;;3.00;3.00;;;;;-147.49;100.00;58502.75;6386192;22;8755;-92
2022/07/29 08:40:34;;;;;;;;;3.33;3.33;;;;;-147.49;100.00;58502.75;6389345;22;9560;-92
2022/07/29 08:43:05;;;;;;;;;4.25;2.50;;;;;-147.49;100.00;58502.75;6419966;22;8829;-91
2022/07/29 08:45:40;;;;;;;;;3.00;3.00;;;;;-147.49;100.00;58502.75;6418373;22;8726;-90
2022/07/29 08:48:06;;;;;;;;;2.75;2.75;;;;;-147.49;100.00;58502.75;6419234;22;8812;-90
2022/07/29 08:50:35;;;;;;;;;4.33;4.33;;;;;-147.49;100.00;58502.75;6419824;22;8774;-92
2022/07/29 08:53:01;;;;;;;;;4.50;4.50;;;;;-147.49;100.00;58502.75;6390666;22;8722;-89
2022/07/29 08:55:27;;;;;;;;;4.75;4.00;;;;;-147.49;100.00;58502.75;6419380;22;8916;-91
2022/07/29 08:58:01;;;;;;;;;3.75;3.75;;;;;-147.49;100.00;58502.75;6419835;22;8694;-91
2022/07/29 09:00:28;;;;;;;;;4.25;4.25;;;;;-147.49;100.00;58502.75;6418374;22;8678;-91
2022/07/29 09:02:58;;;;;;;;;3.75;3.75;;;;;-147.49;100.00;58502.75;6419398;22;8730;-90
2022/07/29 09:05:25;;;;;;;;;5.67;5.67;;;;;-147.49;100.00;58502.75;6419154;22;8671;-91
2022/07/29 09:07:51;;;;;;;;;3.25;3.25;;;;;-147.49;100.00;58502.75;6390910;22;8804;-91
2022/07/29 09:10:17;;;;;;;;;5.00;5.00;;;;;-147.49;100.00;58502.75;6419286;22;8730;-91
2022/07/29 09:12:45;;;;;;;;;4.67;4.67;;;;;-147.49;100.00;58502.75;6389401;22;9019;-92
2022/07/29 09:15:11;;;;;;;;;4.50;4.50;;;;;-147.49;100.00;58502.75;6418890;22;8733;-91
2022/07/29 09:17:41;;;;;;;;;5.33;5.33;;;;;-147.49;100.00;58502.75;6419609;22;9460;-93
2022/07/29 09:20:12;;;;;;;;;5.00;5.00;;;;;-147.49;100.00;58502.75;6391033;22;8730;-92
2022/07/29 09:22:38;;;;;;;;;4.00;4.00;;;;;-147.49;100.00;58502.75;6418763;22;8733;-92
2022/07/29 09:36:45;;;;;;;;;3.00;3.00;;;;;-147.49;100.00;58502.75;6370177;22;8770;-94
2022/07/29 09:39:49;;;;;;;;;;;;;;;;;;;;;
2022/07/29 09:42:32;;;;;;;;;4.50;4.50;;;;;-147.49;100.00;58502.75;6381877;22;36359;-92
2022/07/29 09:45:10;;;;;;;;;;;;;;;;;;;;;
2022/07/29 09:48:00;;;;;;;;;3.75;3.75;;;;;-147.49;100.00;58502.75;6381818;22;36957;-92
2022/07/29 09:51:07;;;;;;;;;3.00;3.00;;;;;-147.49;100.00;58502.75;6383131;22;8706;-92
2022/07/29 09:54:04;;;;;;;;;;;;;;;;;;;;;
2022/07/29 09:56:42;;;;;;;;;3.00;3.00;;;;;-147.49;100.00;58502.75;6288347;22;36809;-95
2022/07/29 11:06:53;;;;;;;;;;;;;;;;;;;;;
2022/07/29 11:18:13;;;;;;;;;2.00;2.00;;;;;-147.49;100.00;58502.75;6403135;22;8998;-92
2022/07/29 11:21:54;;;;;;;;;;;;;;;;;;;;;
2022/07/29 11:28:50;;;;;;;;;;;;;;;;;;;;;
2022/07/29 11:56:46;;;;;;;;;;;;;;;;;;;;;
2022/07/29 11:59:27;;;;;;;;;2.67;2.67;;;;;-147.49;100.00;58502.75;5940465;23;36039;-93
2022/07/29 12:08:54;;;;;;;;;1.33;1.33;;;;;-147.49;100.00;58502.75;6141990;22;8933;-92
2022/07/29 12:11:45;;;;;;;;;;;;;;;;;;;;;
2022/07/29 12:15:17;;;;;;;;;1.67;1.67;;;;;-147.49;100.00;58502.75;6413850;22;35918;-92
2022/07/29 12:17:45;;;;;;;;;1.75;1.75;;;;;-147.49;100.00;58502.75;6233907;22;8921;-92
2022/07/29 12:20:30;;;;;;;;;1.75;1.75;;;;;-147.49;100.00;58502.75;6255290;22;8745;-92
2022/07/29 12:23:06;;;;;;;;;2.00;2.00;;;;;-147.49;100.00;58502.75;6331118;22;8773;-92
2022/07/29 12:25:49;;;;;;;;;;;;;;;;;;;;;
2022/07/29 12:34:28;;;;;;;;;1.00;1.00;;;;;-147.49;100.00;58502.75;6385472;22;8722;-92
2022/07/29 12:37:04;;;;;;;;;;;;;;;;;;;;;
2022/07/29 12:39:48;;;;;;;;;;;;;;;;;;;;;
2022/07/29 12:42:26;;;;;;;;;;;;;;;;;;;;;
2022/07/29 12:45:04;;;;;;;;;2.00;2.00;;;;;-147.49;100.00;58502.75;6386656;22;36389;-93
2022/07/29 12:47:50;;;;;;;;;2.00;2.00;;;;;-147.49;100.00;58502.75;6359000;22;8894;-93
2022/07/29 12:50:25;;;;;;;;;3.00;3.00;;;;;-147.49;100.00;58502.75;6387576;22;9037;-93
2022/07/29 12:53:14;;;;;;;;;2.00;2.00;;;;;-147.49;100.00;58502.75;6357604;22;8947;-92
2022/07/29 12:56:02;;;;;;;;;0.75;0.75;;;;;-147.49;100.00;58502.75;6364714;22;9708;-93
2022/07/29 12:58:35;;;;;;;;;2.00;2.00;;;;;-147.49;100.00;58502.75;6358728;22;8701;-93
2022/07/29 13:01:21;;;;;;;;;1.75;1.75;;;;;-147.49;100.00;58502.75;6358635;22;8807;-93
2022/07/29 13:03:56;;;;;;;;;1.00;1.00;;;;;-147.49;100.00;58502.75;6386980;22;8706;-92
2022/07/29 13:06:49;;;;;;;;;2.25;2.25;;;;;-147.49;100.00;58502.75;6387075;22;8726;-93
2022/07/29 13:09:22;;;;;;;;;2.00;2.00;;;;;-147.49;100.00;58502.75;6385957;22;8830;-93
2022/07/29 13:12:24;;;;;;;;;2.00;2.00;;;;;-147.49;100.00;58502.75;6356842;22;8757;-93
2022/07/29 13:15:19;;;;;;;;;2.00;2.00;;;;;-147.49;100.00;58502.75;6358391;22;8721;-93
2022/07/29 13:18:09;;;;;;;;;2.25;2.25;;;;;-147.49;100.00;58502.75;6359426;22;8722;-93
2022/07/29 13:21:07;;;;;;;;;;;;;;;;;;;;;
2022/07/29 13:23:46;;;;;;;;;;;;;;;;;;;;;
2022/07/29 13:26:21;;;;;;;;;3.00;3.00;;;;;-147.49;100.00;58502.75;6418006;22;36242;-93
2022/07/29 13:28:47;;;;;;;;;2.00;2.00;;;;;-147.49;100.00;58502.75;6389521;22;8819;-93
2022/07/29 13:31:22;;;;;;;;;1.33;1.33;;;;;-147.49;100.00;58502.75;6389176;22;8908;-93
2022/07/29 13:33:57;;;;;;;;;3.00;2.00;;;;;-147.49;100.00;58502.75;6419268;22;8775;-93
2022/07/29 13:36:27;;;;;;;;;1.75;1.75;;;;;-147.49;100.00;58502.75;6389057;22;8726;-93
2022/07/29 13:39:00;;;;;;;;;2.00;2.00;;;;;-147.49;100.00;58502.75;6418856;22;8726;-93
2022/07/29 13:41:39;;;;;;;;;2.00;2.00;;;;;-147.49;100.00;58502.75;6389081;22;8935;-92
2022/07/29 13:44:23;;;;;;;;;2.00;2.00;;;;;-147.49;100.00;58502.75;6418065;22;8779;-93
2022/07/29 13:46:58;;;;;;;;;3.00;3.00;;;;;-147.49;100.00;58502.75;6387828;22;8745;-93
2022/07/29 13:49:24;;;;;;;;;4.00;3.00;;;;;-147.49;100.00;58502.75;6418457;22;8706;-92
2022/07/29 13:51:50;;;;;;;;;4.00;4.00;;;;;-147.49;100.00;58502.75;6417074;22;8746;-92
2022/07/29 13:54:15;;;;;;;;;3.00;3.00;;;;;-147.49;100.00;58502.75;6418108;22;8737;-91
2022/07/29 13:56:41;;;;;;;;;3.00;2.67;;;;;-147.49;100.00;58502.75;6388987;22;8780;-93
2022/07/29 13:59:16;;;;;;;;;1.00;1.00;;;;;-147.49;100.00;58502.75;6388428;22;8754;-92
2022/07/29 14:01:44;;;;;;;;;2.50;2.50;;;;;-147.49;100.00;58502.75;6417258;22;8741;-92
2022/07/29 14:04:33;;;;;;;;;2.75;2.75;;;;;-147.49;100.00;58502.75;6389855;22;8740;-93
2022/07/29 14:06:58;;;;;;;;;3.75;3.75;;;;;-147.49;100.00;58502.75;6417791;22;8730;-93
2022/07/29 14:09:26;;;;;;;;;2.33;2.33;;;;;-147.49;100.00;58502.75;6419244;22;8734;-93
2022/07/29 14:12:05;;;;;;;;;3.00;3.00;;;;;-147.49;100.00;58502.75;6417374;22;8831;-92
2022/07/29 14:14:49;;;;;;;;;;;;;;;;;;;;;
2022/07/29 15:35:05;;;;;;;;;1.75;1.75;;;;;-147.49;100.00;58502.75;6379567;22;8799;-93
2022/07/29 15:37:46;;;;;;;;;;;;;;;;;;;;;
2022/07/29 15:43:22;;;;;;;;;3.00;3.00;;;;;-147.49;100.00;58502.75;6373011;22;8774;-93
2022/07/29 15:57:41;;;;;;;;;;;;;;;;;;;;;
